aviador You're here:

YBTL Decoded Metar

TOWNSVILLE in AUSTRALIA
Report Time2017-08-24 03:00:00
UTC Time2017-08-24 03:08:50
Flight Rules vfr VFR
Wind050° at 11 kt
W.Decomp.*RWY 07: 9.7 kt HW 5.2 kt LCW
RWY 01: 9.3 kt HW 5.8 kt RCW
W.Rank050° ranks 4
Current wind is above 050° avg. (10.5)
Visibility9999 m
Phenomena:N/A
Clouds:Few 045 Hf
Expected CloudBase > 4,400 ft AGL from Temp-Dew spread
CeilingNone
Temp26°C (ISA +11)
Dew Point15°C (51% RH)
AAT23.7°C
QNH1015 hPa
Density Alt1,457 ft
Elevation20 ft
Report Wrong Elevation
Raw Report
METAR YBTL 240300Z 05011KT 9999 FEW045 26/15 Q1015
NOSIG=

Extra information for YBTL:More info

Metar Taf Metar & Taf Last 4 Metars F.Rules Stats Wind Profile Meteogram Temp Stats Airport Information Weather charts Add Link Nearby VenuesMetar ALERT Operation Metar Decoded Social comments